Terminal Aerodrome Forecast
Issued by NWS Bismarck, ND

Home | Current Version | Previous Version | Graphics & Text | Print | Product List | Glossary On
Versions: 1 2 3 4 5 6 7 8 9 10 11 12 13 14 15
000
FTUS43 KBIS 180500
TAFISN
TAF
KISN 180535Z 1806/1906 12007KT P6SM SKC
     FM181200 16007KT P6SM FEW100
     FM181700 24013KT P6SM BKN090
     FM182100 33018G25KT P6SM -RA BKN060
     FM190200 32015G20KT P6SM BKN070=

USA.gov is the U.S. government's official web portal to all federal, state and local government web resources and services.